Time;durP1;ratioP1;P1;durP2;ratioP2;P2;SDS_P1;SDS_P2;PMS_P1;PMS_P2;Temp;Humidity;BMP_temperature;BMP_pressure;BME280_temperature;BME280_humidity;BME280_pressure;Samples;Min_cycle;Max_cycle;Signal;HPM_P1;HPM_P2
2022/10/09 00:00:44;;;;;;;13.50;2.38;;;;;;;6.03;100.00;154048.84;5042659;28;20475;-73
2022/10/09 00:03:10;;;;;;;16.35;2.80;;;;;;;6.00;100.00;154041.16;5024710;28;20041;-73
2022/10/09 00:05:36;;;;;;;20.17;2.78;;;;;;;5.99;100.00;154037.31;5032748;28;20029;-73
2022/10/09 00:08:02;;;;;;;12.35;2.35;;;;;;;5.98;100.00;154036.03;5041384;28;20524;-73
2022/10/09 00:10:28;;;;;;;12.10;2.15;;;;;;;5.96;100.00;154029.66;5041671;28;20041;-73
2022/10/09 00:12:54;;;;;;;11.35;2.20;;;;;;;5.96;100.00;154029.66;5053532;28;20387;-73
2022/10/09 00:15:20;;;;;;;18.52;2.78;;;;;;;5.95;100.00;154027.03;5039892;28;20041;-73
2022/10/09 00:17:45;;;;;;;11.55;2.47;;;;;;;5.90;100.00;154014.28;5037074;28;20047;-73
2022/10/09 00:20:11;;;;;;;10.70;2.42;;;;;;;5.90;100.00;154015.56;5034435;28;20259;-72
2022/10/09 00:22:38;;;;;;;11.88;2.42;;;;;;;5.87;100.00;154007.88;5060346;28;20025;-73
2022/10/09 00:25:04;;;;;;;10.05;2.55;;;;;;;5.83;100.00;153998.91;5039354;28;20025;-73
2022/10/09 00:27:30;;;;;;;7.25;2.10;;;;;;;5.85;100.00;154004.00;5028683;28;20523;-73
2022/10/09 00:29:55;;;;;;;10.82;2.25;;;;;;;5.84;100.00;154000.22;5032286;28;20032;-73
2022/10/09 00:32:21;;;;;;;13.55;2.63;;;;;;;5.79;100.00;153988.69;5027325;28;20041;-73
2022/10/09 00:34:47;;;;;;;14.55;2.45;;;;;;;5.78;100.00;153986.16;5059806;28;20477;-73
2022/10/09 00:37:13;;;;;;;12.70;2.42;;;;;;;5.83;100.00;153997.63;5035058;28;20033;-73
2022/10/09 00:39:38;;;;;;;10.98;2.45;;;;;;;5.82;100.00;153996.38;5043252;28;20033;-73
2022/10/09 00:42:04;;;;;;;9.60;2.30;;;;;;;5.79;100.00;153988.69;5019042;28;20040;-73
2022/10/09 00:44:58;;;;;;;10.20;2.30;;;;;;;5.77;100.00;153982.31;5042159;28;21718;-73
2022/10/09 00:47:34;;;;;;;11.18;2.50;;;;;;;5.74;100.00;153974.63;5025858;28;20045;-73
2022/10/09 00:50:25;;;;;;;10.55;2.33;;;;;;;5.64;100.00;153951.59;5012658;28;20128;-72
2022/10/09 00:52:53;;;;;;;9.80;2.20;;;;;;;5.64;100.00;153951.59;5015235;28;20040;-72
2022/10/09 00:55:21;;;;;;;13.20;2.72;;;;;;;5.64;100.00;153951.59;5045399;28;20090;-73
2022/10/09 00:57:47;;;;;;;12.38;2.55;;;;;;;5.62;100.00;153946.47;5044168;28;20031;-72
2022/10/09 01:00:14;;;;;;;8.93;3.00;;;;;;;5.65;100.00;153954.16;5059170;28;20041;-72
2022/10/09 01:02:39;;;;;;;14.15;2.45;;;;;;;5.67;100.00;153958.00;5023782;28;20099;-72
2022/10/09 01:05:07;;;;;;;10.48;2.40;;;;;;;5.68;100.00;153960.53;5040108;28;20029;-72
2022/10/09 01:07:57;;;;;;;14.32;2.60;;;;;;;5.60;100.00;153941.38;5044756;28;20051;-73
2022/10/09 01:10:34;;;;;;;11.65;2.40;;;;;;;5.57;100.00;153933.69;5029583;28;20037;-71
2022/10/09 01:13:26;;;;;;;7.68;2.65;;;;;;;5.53;100.00;153923.47;5015589;28;20082;-72
2022/10/09 01:16:00;;;;;;;11.27;2.30;;;;;;;5.49;100.00;153913.25;5014911;28;20632;-72
2022/10/09 01:18:34;;;;;;;13.30;2.50;;;;;;;5.47;100.00;153908.13;5042507;28;20622;-72
2022/10/09 01:21:13;;;;;;;8.00;2.40;;;;;;;5.44;100.00;153901.75;5022793;28;20060;-72
2022/10/09 01:24:01;;;;;;;8.52;2.10;;;;;;;5.44;100.00;153900.44;5034432;28;20153;-71
2022/10/09 01:26:49;;;;;;;8.73;2.20;;;;;;;5.40;100.00;153891.47;5025942;28;20037;-72
2022/10/09 01:29:17;;;;;;;13.73;2.25;;;;;;;5.40;100.00;153890.22;5042552;28;20041;-72
2022/10/09 01:31:47;;;;;;;9.48;2.00;;;;;;;5.35;100.00;153877.44;5026492;28;20115;-72
2022/10/09 01:34:15;;;;;;;7.85;2.00;;;;;;;5.35;100.00;153877.44;5007741;28;20495;-72
2022/10/09 01:36:43;;;;;;;13.35;2.58;;;;;;;5.35;100.00;153877.44;5026221;28;20482;-72
2022/10/09 01:39:12;;;;;;;14.80;2.55;;;;;;;5.35;100.00;153877.44;5009868;28;20124;-72
2022/10/09 01:41:38;;;;;;;7.63;2.30;;;;;;;5.34;100.00;153876.16;5021549;28;20084;-71
2022/10/09 01:44:26;;;;;;;8.48;2.30;;;;;;;5.32;100.00;153871.06;5023025;28;20042;-74
2022/10/09 01:46:51;;;;;;;8.52;2.78;;;;;;;5.31;100.00;153868.47;5022170;28;20038;-72
2022/10/09 01:49:27;;;;;;;8.35;2.80;;;;;;;5.26;100.00;153855.72;5040043;28;20091;-72
2022/10/09 01:52:04;;;;;;;12.73;3.50;;;;;;;5.24;100.00;153851.88;5054124;28;20040;-72
2022/10/09 01:54:48;;;;;;;12.13;3.63;;;;;;;5.20;100.00;153841.66;5046256;28;20116;-72
2022/10/09 01:57:22;;;;;;;8.50;3.42;;;;;;;5.16;100.00;153830.13;5061741;28;20113;-72
2022/10/09 01:59:50;;;;;;;11.48;3.08;;;;;;;5.11;100.00;153818.66;5043176;28;20065;-72
2022/10/09 02:02:16;;;;;;;9.77;3.20;;;;;;;5.11;100.00;153817.38;5043789;28;20032;-72
2022/10/09 02:04:42;;;;;;;10.93;3.10;;;;;;;5.14;100.00;153826.31;5030428;28;20120;-72
2022/10/09 02:07:09;;;;;;;11.63;3.13;;;;;;;5.17;100.00;153833.97;5041073;28;20052;-72
2022/10/09 02:09:37;;;;;;;10.07;3.08;;;;;;;5.22;100.00;153845.50;5027877;28;20087;-72
2022/10/09 02:12:06;;;;;;;13.85;3.08;;;;;;;5.21;100.00;153842.91;5023835;28;20484;-72
2022/10/09 02:14:33;;;;;;;14.68;3.13;;;;;;;5.21;100.00;153842.91;5032097;28;20025;-72
2022/10/09 02:17:07;;;;;;;13.73;2.88;;;;;;;5.26;100.00;153855.72;5040830;28;20086;-72
2022/10/09 02:19:37;;;;;;;8.18;3.10;;;;;;;5.31;100.00;153868.47;5053713;28;20115;-72
2022/10/09 02:22:15;;;;;;;9.68;2.80;;;;;;;5.36;100.00;153881.28;5057422;28;20025;-72
2022/10/09 02:24:41;;;;;;;11.32;3.08;;;;;;;5.44;100.00;153901.75;5043552;28;20025;-72
2022/10/09 02:27:09;;;;;;;11.52;3.15;;;;;;;5.47;100.00;153909.41;5036823;28;20120;-73
2022/10/09 02:29:37;;;;;;;5.78;2.80;;;;;;;5.51;100.00;153918.34;5040619;28;20040;-72
2022/10/09 02:32:03;;;;;;;8.73;2.60;;;;;;;5.55;100.00;153927.31;5041589;28;20056;-71
2022/10/09 02:34:29;;;;;;;11.18;2.70;;;;;;;5.62;100.00;153945.22;5018639;28;20648;-72
2022/10/09 02:36:54;;;;;;;8.88;2.40;;;;;;;5.66;100.00;153955.44;5029897;28;20068;-72
2022/10/09 02:39:20;;;;;;;10.23;2.95;;;;;;;5.65;100.00;153952.84;5051513;28;20033;-71
2022/10/09 02:41:48;;;;;;;10.55;2.75;;;;;;;5.61;100.00;153942.63;5045761;28;20033;-72
2022/10/09 02:44:13;;;;;;;12.50;2.90;;;;;;;5.52;100.00;153919.63;5056732;28;20591;-72
2022/10/09 02:46:39;;;;;;;10.95;2.90;;;;;;;5.47;100.00;153908.13;5038446;28;20041;-72
2022/10/09 02:49:05;;;;;;;6.80;2.30;;;;;;;5.50;100.00;153914.50;5053277;28;20029;-71
2022/10/09 02:51:32;;;;;;;13.13;3.30;;;;;;;5.42;100.00;153895.31;5051039;28;20502;-73
2022/10/09 02:53:58;;;;;;;12.77;2.70;;;;;;;5.36;100.00;153881.28;5053062;28;20079;-72
2022/10/09 02:56:24;;;;;;;13.65;3.53;;;;;;;5.35;100.00;153878.75;5064786;28;20056;-72
2022/10/09 02:58:50;;;;;;;15.77;3.20;;;;;;;5.30;100.00;153865.94;5054913;28;20035;-72
2022/10/09 03:01:16;;;;;;;13.23;3.10;;;;;;;5.28;100.00;153860.81;5048037;28;20037;-72
2022/10/09 03:03:41;;;;;;;12.60;3.05;;;;;;;5.24;100.00;153851.88;5045801;28;20394;-71
2022/10/09 03:06:13;;;;;;;9.77;3.15;;;;;;;5.17;100.00;153832.69;5047385;28;20091;-73
2022/10/09 03:08:41;;;;;;;14.32;3.38;;;;;;;5.16;100.00;153830.13;5047298;28;20033;-73
2022/10/09 03:11:09;;;;;;;14.88;3.70;;;;;;;5.11;100.00;153818.66;5043786;28;20505;-72
2022/10/09 03:13:35;;;;;;;10.60;3.17;;;;;;;5.03;100.00;153799.47;5042089;28;20555;-71
2022/10/09 03:16:05;;;;;;;10.65;3.15;;;;;;;5.00;100.00;153791.78;5029943;28;20123;-72
2022/10/09 03:18:31;;;;;;;8.50;3.58;;;;;;;4.96;100.00;153781.56;5062585;28;20083;-72
2022/10/09 03:20:56;;;;;;;11.27;2.90;;;;;;;4.93;100.00;153772.63;5031323;28;20033;-71
2022/10/09 03:23:23;;;;;;;14.35;3.67;;;;;;;4.90;100.00;153764.94;5046926;28;20045;-71
2022/10/09 03:25:59;;;;;;;9.65;3.45;;;;;;;4.82;100.00;153747.06;5047053;28;20029;-71
2022/10/09 03:28:26;;;;;;;12.55;3.42;;;;;;;4.77;100.00;153734.28;5040891;28;20111;-72
2022/10/09 03:30:52;;;;;;;7.78;3.28;;;;;;;4.75;100.00;153729.19;5040979;28;20364;-72
2022/10/09 03:33:19;;;;;;;12.20;3.40;;;;;;;4.72;100.00;153720.22;5033321;28;20449;-72
2022/10/09 03:35:46;;;;;;;13.68;3.72;;;;;;;4.70;100.00;153715.13;5038452;28;20026;-72
2022/10/09 03:38:12;;;;;;;14.15;3.63;;;;;;;4.65;100.00;153703.59;5034217;28;20041;-72
2022/10/09 03:40:38;;;;;;;12.63;3.83;;;;;;;4.60;100.00;153692.13;5011463;28;20033;-72
2022/10/09 03:43:03;;;;;;;14.45;3.85;;;;;;;4.62;100.00;153695.97;5038659;28;20501;-72
2022/10/09 03:45:29;;;;;;;13.05;3.28;;;;;;;4.64;100.00;153701.06;5030533;28;20060;-72
2022/10/09 03:47:55;;;;;;;10.52;4.10;;;;;;;4.57;100.00;153683.16;5038760;28;20044;-72
2022/10/09 03:50:20;;;;;;;9.98;3.22;;;;;;;4.58;100.00;153685.75;5058506;28;20043;-72
2022/10/09 03:52:46;;;;;;;10.80;3.83;;;;;;;4.59;100.00;153688.28;5062556;28;20040;-72
2022/10/09 03:55:12;;;;;;;13.02;4.00;;;;;;;4.57;100.00;153684.44;5029928;28;20100;-72
2022/10/09 03:57:37;;;;;;;11.18;4.07;;;;;;;4.55;100.00;153679.31;5045368;28;20033;-72
2022/10/09 04:00:04;;;;;;;15.10;4.22;;;;;;;4.54;100.00;153676.78;5028937;28;20037;-72
2022/10/09 04:02:31;;;;;;;14.98;3.90;;;;;;;4.53;100.00;153674.22;5039775;28;20060;-71
2022/10/09 04:04:57;;;;;;;9.95;4.20;;;;;;;4.53;100.00;153674.22;5031504;28;20040;-72
2022/10/09 04:07:23;;;;;;;17.60;5.40;;;;;;;4.51;100.00;153667.84;5026598;28;20057;-72
2022/10/09 04:09:48;;;;;;;10.88;4.43;;;;;;;4.46;100.00;153657.63;5041664;28;20502;-72
2022/10/09 04:12:14;;;;;;;11.48;4.60;;;;;;;4.46;100.00;153656.31;5045781;28;20037;-72
2022/10/09 04:14:40;;;;;;;16.90;5.20;;;;;;;4.45;100.00;153653.78;5056010;28;20025;-72
2022/10/09 04:17:06;;;;;;;8.73;4.40;;;;;;;4.46;100.00;153657.63;5025433;28;20041;-72
2022/10/09 04:19:31;;;;;;;9.40;4.25;;;;;;;4.41;100.00;153643.56;5031239;28;20120;-72
2022/10/09 04:21:57;;;;;;;13.35;4.22;;;;;;;4.41;100.00;153644.84;5028436;28;20036;-72
2022/10/09 04:24:23;;;;;;;13.25;4.65;;;;;;;4.39;100.00;153638.44;5045773;28;20115;-72
2022/10/09 04:26:48;;;;;;;10.70;4.70;;;;;;;4.38;100.00;153637.16;5023402;28;20105;-72
2022/10/09 04:29:14;;;;;;;14.25;5.00;;;;;;;4.38;100.00;153635.91;5059017;28;20033;-72
2022/10/09 04:31:39;;;;;;;11.93;4.57;;;;;;;4.35;100.00;153628.22;5013923;28;20044;-72
2022/10/09 04:34:05;;;;;;;12.80;4.20;;;;;;;4.37;100.00;153633.31;5027160;28;20034;-72
2022/10/09 04:36:30;;;;;;;14.82;3.90;;;;;;;4.34;100.00;153626.94;5031084;28;20064;-72
2022/10/09 04:38:56;;;;;;;8.43;3.80;;;;;;;4.31;100.00;153619.25;5030316;28;20062;-72
2022/10/09 04:41:22;;;;;;;10.65;4.50;;;;;;;4.30;100.00;153616.72;5037821;28;20045;-72
2022/10/09 04:43:47;;;;;;;10.65;4.65;;;;;;;4.32;100.00;153621.84;5026776;28;20036;-72
2022/10/09 04:46:13;;;;;;;14.45;4.47;;;;;;;4.32;100.00;153621.84;5042616;28;20044;-71
2022/10/09 04:48:41;;;;;;;7.55;4.40;;;;;;;4.32;100.00;153620.56;5026737;28;20037;-71
2022/10/09 04:51:08;;;;;;;11.00;4.47;;;;;;;4.29;100.00;153614.16;5023241;28;20068;-72
2022/10/09 04:53:35;;;;;;;12.88;4.82;;;;;;;4.28;100.00;153612.88;5040762;28;20105;-72
2022/10/09 04:56:03;;;;;;;10.45;4.30;;;;;;;4.28;100.00;153611.63;5046793;28;20143;-72
2022/10/09 04:58:30;;;;;;;13.73;4.75;;;;;;;4.28;100.00;153611.63;5051185;28;20036;-72
2022/10/09 05:00:56;;;;;;;11.48;4.47;;;;;;;4.23;100.00;153598.84;5026009;28;20076;-71
2022/10/09 05:03:22;;;;;;;10.45;4.55;;;;;;;4.21;100.00;153595.00;5028631;28;20938;-72
2022/10/09 05:05:48;;;;;;;9.60;4.50;;;;;;;4.21;100.00;153595.00;5028712;28;20033;-72
2022/10/09 05:08:14;;;;;;;11.30;4.47;;;;;;;4.21;100.00;153593.72;5020390;28;20044;-71
2022/10/09 05:10:39;;;;;;;10.45;4.45;;;;;;;4.19;100.00;153589.91;5040194;28;20044;-72
2022/10/09 05:13:05;;;;;;;8.88;4.78;;;;;;;4.16;100.00;153580.94;5040856;28;20089;-72
2022/10/09 05:15:34;;;;;;;8.00;4.50;;;;;;;4.11;100.00;153569.47;5014265;28;20074;-72
2022/10/09 05:18:00;;;;;;;8.80;4.30;;;;;;;4.10;100.00;153566.91;5036850;28;20042;-72
2022/10/09 05:20:25;;;;;;;12.77;5.05;;;;;;;4.16;100.00;153582.22;5049896;28;20044;-71
2022/10/09 05:22:51;;;;;;;13.57;5.32;;;;;;;4.17;100.00;153584.78;5016418;28;20091;-72
2022/10/09 05:25:16;;;;;;;16.80;5.47;;;;;;;4.21;100.00;153593.72;5061945;28;20535;-72
2022/10/09 05:27:42;;;;;;;11.98;5.28;;;;;;;4.26;100.00;153606.53;5027153;28;20047;-72
2022/10/09 05:30:08;;;;;;;12.18;5.10;;;;;;;4.36;100.00;153632.06;5038378;28;20039;-72
2022/10/09 05:32:34;;;;;;;13.10;5.72;;;;;;;4.42;100.00;153646.09;5032082;28;20391;-72
2022/10/09 05:35:00;;;;;;;11.43;5.13;;;;;;;4.39;100.00;153639.72;5045431;28;20033;-72
2022/10/09 05:37:25;;;;;;;14.32;5.72;;;;;;;4.41;100.00;153644.84;5064615;28;20045;-71
2022/10/09 05:39:51;;;;;;;14.60;5.07;;;;;;;4.38;100.00;153635.91;5049520;28;20083;-72
2022/10/09 05:42:16;;;;;;;12.38;5.38;;;;;;;4.37;100.00;153633.31;5062324;28;20072;-72
2022/10/09 05:44:42;;;;;;;15.43;5.03;;;;;;;4.34;100.00;153625.69;5043612;28;20063;-72
2022/10/09 05:47:08;;;;;;;10.55;4.90;;;;;;;4.33;100.00;153624.38;5047281;28;20036;-71
2022/10/09 05:49:33;;;;;;;16.55;5.75;;;;;;;4.38;100.00;153637.16;5040163;28;20036;-72
2022/10/09 05:51:59;;;;;;;18.60;5.93;;;;;;;4.39;100.00;153639.72;5048852;28;20086;-72
2022/10/09 05:54:24;;;;;;;14.23;5.50;;;;;;;4.45;100.00;153653.78;5049266;28;20037;-72
2022/10/09 05:56:50;;;;;;;15.13;5.50;;;;;;;4.57;100.00;153683.16;5046070;28;20025;-71
2022/10/09 05:59:20;;;;;;;16.13;5.40;;;;;;;4.59;100.00;153689.53;5056456;28;20120;-72
2022/10/09 06:01:48;;;;;;;13.05;5.38;;;;;;;4.58;100.00;153687.00;5039898;28;20040;-72
2022/10/09 06:04:23;;;;;;;16.40;5.82;;;;;;;4.58;100.00;153687.00;5041652;28;20033;-71
2022/10/09 06:06:49;;;;;;;10.50;5.28;;;;;;;4.60;100.00;153692.13;5064791;28;20759;-72
2022/10/09 06:09:21;;;;;;;11.45;4.95;;;;;;;4.58;100.00;153685.75;5022500;28;20037;-71
2022/10/09 06:11:48;;;;;;;16.52;5.10;;;;;;;4.62;100.00;153695.97;5033324;28;20041;-72
2022/10/09 06:14:13;;;;;;;12.57;5.65;;;;;;;4.63;100.00;153699.81;5026617;28;20106;-71
2022/10/09 06:16:41;;;;;;;9.82;5.47;;;;;;;4.71;100.00;153717.66;5059118;28;20433;-72
2022/10/09 06:19:14;;;;;;;15.18;5.63;;;;;;;4.82;100.00;153747.06;5016433;28;20041;-71
2022/10/09 06:21:41;;;;;;;14.65;6.32;;;;;;;4.98;100.00;153786.69;5033088;28;20029;-72
2022/10/09 06:24:07;;;;;;;19.80;6.75;;;;;;;5.20;100.00;153840.41;5029027;28;20044;-72
2022/10/09 06:26:33;;;;;;;14.88;6.32;;;;;;;5.31;100.00;153868.47;5046862;28;20066;-72
2022/10/09 06:29:01;;;;;;;11.68;5.88;;;;;;;5.40;100.00;153890.22;5016907;28;20048;-72
2022/10/09 06:31:29;;;;;;;14.82;6.30;;;;;;;5.50;100.00;153914.50;5035894;28;20118;-72
2022/10/09 06:33:56;;;;;;;12.85;6.03;;;;;;;5.60;100.00;153940.09;5036681;28;20030;-72
2022/10/09 06:36:25;;;;;;;16.20;6.45;;;;;;;5.74;100.00;153974.63;5055211;28;20116;-72
2022/10/09 06:38:52;;;;;;;11.80;6.13;;;;;;;5.78;100.00;153986.16;5033100;28;20041;-72
2022/10/09 06:41:23;;;;;;;18.50;7.00;;;;;;;5.83;100.00;153997.63;5032191;28;20574;-72
2022/10/09 06:43:54;;;;;;;16.38;6.22;;;;;;;5.91;100.00;154016.81;5034889;28;20045;-72
2022/10/09 06:46:22;;;;;;;18.50;7.22;;;;;;;6.03;100.00;154047.59;5026736;28;20037;-72
2022/10/09 06:48:48;;;;;;;21.75;9.10;;;;;;;6.17;100.00;154082.09;5032520;28;20036;-72
2022/10/09 06:51:16;;;;;;;18.38;8.10;;;;;;;6.31;100.00;154117.94;5057373;28;20045;-72
2022/10/09 06:53:47;;;;;;;17.73;7.78;;;;;;;6.40;100.00;154139.66;5031758;28;20030;-72
2022/10/09 06:56:14;;;;;;;23.75;7.72;;;;;;;6.52;100.00;154170.38;5049630;28;20578;-72
2022/10/09 06:58:40;;;;;;;17.42;8.40;;;;;;;6.60;100.00;154190.84;5031456;28;20071;-72
2022/10/09 07:01:18;;;;;;;18.58;6.65;;;;;;;6.72;100.00;154219.00;5041954;28;20518;-72
2022/10/09 07:03:46;;;;;;;15.55;6.10;;;;;;;6.82;100.00;154245.88;5044136;28;20072;-72
2022/10/09 07:06:18;;;;;;;20.27;6.55;;;;;;;6.86;100.00;154254.84;5031281;28;20033;-72
2022/10/09 07:08:45;;;;;;;;;;;;;;;6.93;100.00;154272.78;5047044;28;20029;-72
2022/10/09 07:11:13;;;;;;;15.70;5.90;;;;;;;7.11;100.00;154316.28;5030267;28;20011;-71
2022/10/09 07:13:40;;;;;;;17.52;5.78;;;;;;;7.19;100.00;154336.75;5030340;28;20053;-72
2022/10/09 07:16:06;;;;;;;14.98;6.00;;;;;;;7.32;100.00;154368.75;5046429;28;20025;-72
2022/10/09 07:18:33;;;;;;;10.02;5.97;;;;;;;7.41;100.00;154391.81;5028304;28;20049;-72
2022/10/09 07:21:03;;;;;;;19.73;6.80;;;;;;;7.51;100.00;154417.41;5037977;28;20037;-72
2022/10/09 07:23:31;;;;;;;17.58;6.60;;;;;;;7.63;100.00;154445.56;5041644;28;20033;-72
2022/10/09 07:25:57;;;;;;;12.80;5.68;;;;;;;7.68;100.00;154458.38;5050720;28;20048;-72
2022/10/09 07:28:25;;;;;;;13.85;5.50;;;;;;;7.69;100.00;154462.22;5048939;28;20064;-72
2022/10/09 07:30:51;;;;;;;15.13;5.45;;;;;;;7.78;100.00;154484.03;5015375;28;20098;-72
2022/10/09 07:33:16;;;;;;;11.23;4.90;;;;;;;7.80;100.00;154489.13;5012404;28;20053;-72
2022/10/09 07:35:42;;;;;;;12.40;4.75;;;;;;;7.91;100.00;154516.00;5062503;28;20498;-72
2022/10/09 07:38:08;;;;;;;10.35;4.60;;;;;;;8.01;100.00;154541.63;5031582;28;20047;-72
2022/10/09 07:40:34;;;;;;;13.85;5.10;;;;;;;8.05;100.00;154551.88;5034093;28;20053;-72
2022/10/09 07:43:00;;;;;;;16.48;5.70;;;;;;;8.09;100.00;154562.13;5015132;28;20041;-72
2022/10/09 07:45:26;;;;;;;18.80;5.32;;;;;;;8.21;100.00;154590.28;5048503;28;20043;-72
2022/10/09 07:47:52;;;;;;;12.05;5.47;;;;;;;8.32;100.00;154619.75;5027866;28;20034;-72
2022/10/09 07:50:17;;;;;;;13.50;5.07;;;;;;;8.36;100.00;154630.03;5048456;28;20044;-72
2022/10/09 07:52:43;;;;;;;18.48;4.88;;;;;;;8.42;100.00;154642.84;5027874;28;20040;-72
2022/10/09 07:55:09;;;;;;;13.60;4.82;;;;;;;8.54;100.00;154674.91;5031306;28;20490;-72
2022/10/09 07:57:34;;;;;;;20.95;5.10;;;;;;;8.57;100.00;154682.59;5031836;28;20044;-72
2022/10/09 08:00:00;;;;;;;13.57;4.47;;;;;;;8.62;100.00;154692.84;5039058;28;20481;-72
2022/10/09 08:02:26;;;;;;;15.63;4.95;;;;;;;8.67;100.00;154705.66;5060961;28;20034;-72
2022/10/09 08:04:51;;;;;;;16.77;5.15;;;;;;;8.67;100.00;154706.94;5051491;28;20468;-71
2022/10/09 08:07:17;;;;;;;15.57;4.80;;;;;;;8.75;100.00;154727.44;5038878;28;20064;-72
2022/10/09 08:09:42;;;;;;;15.60;4.10;;;;;;;8.92;100.00;154768.44;5046102;28;20517;-72
2022/10/09 08:12:08;;;;;;;15.68;4.38;;;;;;;9.00;100.00;154787.66;5030537;28;20045;-72
2022/10/09 08:14:34;;;;;;;9.45;4.32;;;;;;;9.02;100.00;154794.06;5012395;28;20032;-72
2022/10/09 08:16:59;;;;;;;12.75;4.47;;;;;;;9.09;100.00;154810.75;5047002;28;20060;-72
2022/10/09 08:19:25;;;;;;;13.77;4.95;;;;;;;9.22;100.00;154844.06;5057020;28;20037;-72
2022/10/09 08:21:50;;;;;;;12.30;4.40;;;;;;;9.24;100.00;154849.19;5045410;28;20045;-72
2022/10/09 08:24:16;;;;;;;15.75;5.20;;;;;;;9.33;100.00;154872.25;5038215;28;20407;-72
2022/10/09 08:26:43;;;;;;;15.82;5.07;;;;;;;9.46;100.00;154904.31;5026746;28;20036;-72
2022/10/09 08:29:09;;;;;;;13.07;5.88;;;;;;;9.60;100.00;154937.66;5032743;28;20515;-71
2022/10/09 08:31:35;;;;;;;14.15;5.50;;;;;;;9.64;100.00;154949.16;5043956;28;20060;-72
2022/10/09 08:34:02;;;;;;;9.52;4.68;;;;;;;9.75;100.00;154976.09;5046725;28;20056;-71
2022/10/09 08:36:29;;;;;;;14.27;4.80;;;;;;;9.84;100.00;154997.94;5016363;28;20045;-72
2022/10/09 08:38:54;;;;;;;13.63;5.35;;;;;;;9.94;100.00;155024.88;5046545;28;20033;-71
2022/10/09 08:41:38;;;;;;;14.45;5.55;;;;;;;9.91;100.00;155015.88;5047854;28;20448;-72
2022/10/09 08:44:21;;;;;;;11.95;4.80;;;;;;;9.92;100.00;155018.44;5047874;28;20041;-72
2022/10/09 08:46:49;;;;;;;17.88;6.57;;;;;;;10.10;100.00;155063.34;5037508;28;20033;-71
2022/10/09 08:49:47;;;;;;;13.95;5.90;;;;;;;10.21;100.00;155090.22;5015121;28;20505;-71
2022/10/09 08:52:15;;;;;;;14.55;5.57;;;;;;;10.37;100.00;155130.06;5020286;28;20038;-72
2022/10/09 08:54:41;;;;;;;12.85;5.68;;;;;;;10.40;100.00;155137.78;5033055;28;20371;-72
2022/10/09 08:57:13;;;;;;;10.00;4.18;;;;;;;10.43;100.00;155145.47;5046920;28;20143;-72
2022/10/09 08:59:39;;;;;;;12.02;3.83;;;;;;;10.40;100.00;155137.78;5044021;28;20040;-71
2022/10/09 09:02:28;;;;;;;13.52;4.43;;;;;;;10.51;100.00;155167.28;5027275;28;20037;-70
2022/10/09 09:05:31;;;;;;;13.32;4.15;;;;;;;10.53;100.00;155171.13;5043615;28;20108;-71
2022/10/09 09:08:15;;;;;;;;;;;;;;;10.50;100.00;155163.44;5031714;28;20047;-71
2022/10/09 09:10:44;;;;;;;8.95;3.30;;;;;;;10.49;100.00;155160.84;5024014;28;20073;-72
2022/10/09 09:13:29;;;;;;;11.10;3.30;;;;;;;10.51;100.00;155166.00;5053051;28;20488;-72
2022/10/09 09:16:08;;;;;;;10.43;3.45;;;;;;;10.64;100.00;155199.38;5028130;28;20588;-72
2022/10/09 09:18:42;;;;;;;7.20;3.05;;;;;;;10.75;100.00;155225.00;5038745;28;20044;-72
2022/10/09 09:21:16;;;;;;;14.48;3.53;;;;;;;10.92;100.00;155268.63;5032263;28;20657;-72
2022/10/09 09:23:45;;;;;;;13.45;4.05;;;;;;;10.88;100.00;155259.63;5008982;28;20044;-72
2022/10/09 09:26:15;;;;;;;10.55;3.20;;;;;;;11.00;100.00;155287.88;5047148;28;20040;-71
2022/10/09 09:28:42;;;;;;;14.43;3.58;;;;;;;11.03;100.00;155295.56;5062713;28;20093;-73
2022/10/09 09:31:28;;;;;;;15.48;3.80;;;;;;;11.18;100.00;155332.81;5046586;28;20117;-72
2022/10/09 09:34:10;;;;;;;10.98;3.92;;;;;;;11.21;100.00;155341.78;5031709;28;20033;-71
2022/10/09 09:37:02;;;;;;;15.23;3.22;;;;;;;11.22;100.00;155344.34;5039718;28;20037;-71
2022/10/09 09:39:31;;;;;;;9.32;2.90;;;;;;;11.22;100.00;155343.06;5047085;28;20050;-73
2022/10/09 09:42:06;;;;;;;11.93;2.40;;;;;;;11.36;100.00;155379.00;5033322;28;20045;-72
2022/10/09 09:44:35;;;;;;;7.15;2.38;;;;;;;11.45;100.00;155400.81;5031205;28;20044;-72
2022/10/09 09:47:00;;;;;;;11.40;2.15;;;;;;;11.74;100.00;155472.72;5039833;28;20069;-73
2022/10/09 09:49:28;;;;;;;9.32;2.80;;;;;;;11.84;100.00;155498.38;5050272;28;20068;-72
2022/10/09 09:51:59;;;;;;;7.97;2.42;;;;;;;11.86;100.00;155504.78;5047142;28;20116;-72
2022/10/09 09:54:29;;;;;;;14.15;2.38;;;;;;;11.88;100.00;155509.97;5077794;28;20048;-72
2022/10/09 09:56:57;;;;;;;18.42;2.40;;;;;;;12.02;100.00;155544.69;5012488;28;20033;-72
2022/10/09 09:59:38;;;;;;;13.30;1.90;;;;;;;12.11;100.00;155566.53;5029257;28;20044;-73
2022/10/09 10:02:19;;;;;;;15.23;2.38;;;;;;;12.22;100.00;155594.78;5028034;28;20405;-72
2022/10/09 10:05:00;;;;;;;10.85;1.80;;;;;;;12.37;100.00;155631.97;5044264;28;20033;-72
2022/10/09 10:07:34;;;;;;;12.35;2.17;;;;;;;12.43;100.00;155646.09;5017587;28;20040;-71
2022/10/09 10:10:04;;;;;;;11.52;1.83;;;;;;;12.60;100.00;155688.50;5030008;28;20060;-73
2022/10/09 10:12:30;;;;;;;7.88;2.15;;;;;;;12.75;100.00;155727.06;5037473;28;20703;-71
2022/10/09 10:14:56;;;;;;;8.38;2.05;;;;;;;12.70;100.00;155714.22;5041679;28;20474;-71
2022/10/09 10:17:29;;;;;;;8.93;1.95;;;;;;;12.86;100.00;155754.03;5070521;28;20033;-72
2022/10/09 10:19:54;;;;;;;5.38;1.73;;;;;;;12.94;100.00;155773.28;5051128;28;20110;-71
2022/10/09 10:22:26;;;;;;;9.98;1.38;;;;;;;13.14;100.00;155823.41;5067045;28;20048;-72
2022/10/09 10:24:57;;;;;;;8.38;1.63;;;;;;;13.27;100.00;155856.81;5046646;28;20064;-72
2022/10/09 10:27:37;;;;;;;8.65;1.40;;;;;;;13.20;100.00;155838.81;5051863;28;20037;-72
2022/10/09 10:30:09;;;;;;;7.80;1.30;;;;;;;13.09;100.00;155810.56;5033873;28;20041;-68
2022/10/09 10:33:05;;;;;;;10.85;1.52;;;;;;;13.01;100.00;155792.56;5044051;28;20041;-72
2022/10/09 10:35:37;;;;;;;9.27;1.42;;;;;;;13.42;100.00;155895.41;5046946;28;20678;-72
2022/10/09 10:38:12;;;;;;;8.35;1.45;;;;;;;13.74;100.00;155975.13;5042491;28;20033;-72
2022/10/09 10:40:55;;;;;;;7.43;1.35;;;;;;;14.10;100.00;156063.84;5061123;28;20505;-72
2022/10/09 10:43:39;;;;;;;6.93;1.30;;;;;;;14.32;97.91;156120.41;5034337;28;20038;-73
2022/10/09 10:46:14;;;;;;;7.97;1.45;;;;;;;14.31;95.54;156116.53;5066715;28;20041;-71
2022/10/09 10:48:46;;;;;;;6.45;1.45;;;;;;;14.32;96.77;156119.13;5028447;28;20127;-72
2022/10/09 10:51:33;;;;;;;6.43;1.40;;;;;;;14.50;98.25;156164.13;5047676;28;20037;-72
2022/10/09 10:54:14;;;;;;;8.70;1.20;;;;;;;14.48;97.88;156160.25;5029817;28;20029;-72
2022/10/09 10:56:46;;;;;;;9.50;1.20;;;;;;;14.31;94.36;156116.53;5065025;28;20032;-72
2022/10/09 10:59:27;;;;;;;9.35;1.45;;;;;;;14.37;96.00;156133.28;5027067;28;20136;-72
2022/10/09 11:02:08;;;;;;;11.23;1.70;;;;;;;14.32;95.31;156120.41;5014470;28;20049;-72
2022/10/09 11:04:55;;;;;;;9.52;1.40;;;;;;;14.18;95.62;156084.38;5028422;28;20286;-72
2022/10/09 11:07:44;;;;;;;7.40;1.27;;;;;;;13.67;95.92;155957.13;5039196;28;20052;-72
2022/10/09 11:10:28;;;;;;;6.57;1.40;;;;;;;13.25;94.71;155852.97;5039422;28;20033;-71
2022/10/09 11:13:08;;;;;;;11.48;1.75;;;;;;;13.10;97.82;155813.16;5014895;28;20045;-72
2022/10/09 11:15:46;;;;;;;8.00;1.23;;;;;;;13.18;99.94;155834.97;5034685;28;20078;-72
2022/10/09 11:18:46;;;;;;;6.63;1.10;;;;;;;13.59;99.47;155937.84;5032712;28;20086;-72
2022/10/09 11:21:30;;;;;;;10.48;1.73;;;;;;;14.01;95.60;156041.97;5061218;28;20032;-72
2022/10/09 11:24:25;;;;;;;5.13;1.25;;;;;;;14.14;94.15;156074.09;5066458;28;20108;-73
2022/10/09 11:27:00;;;;;;;7.05;0.90;;;;;;;14.38;92.96;156134.56;5046411;28;20037;-73
2022/10/09 11:29:36;;;;;;;3.90;1.00;;;;;;;14.59;91.91;156188.59;5028162;28;20056;-72
2022/10/09 11:32:12;;;;;;;8.27;1.52;;;;;;;14.76;89.06;156229.78;5034880;28;20044;-72